Seven Hills, Ohio
Current Conditions -  °F | °C
As of 8:53 PM on Wednesday 22 Oct 2014 (Local Time) from KBKL Reporting Station
Overcast Overcast  
Wind Chill: 53°   Ceiling: 4600
Heat Index: 53°   Visibility: 10mi
Dew Point: 45°   Wind: 17mph
Humidity: 74%   Direction: 350°N
Pressure: 30.23"   Gusts: NA
Location:  41.3833°N, 81.6531°W
Report Text: KBKL 230053Z 35015KT 10SM FEW024 OVC046 12/07 A3023 RMK AO2 SLP238 T01170072
Loading
Personal Weather Stations






























Interactive Weather Map
Tropical Storm Tracking
New forecast layout! Learn more

10-Day Weather Forecast

Advertisements
Track Severe Weather on mobile